Latest Weather Observations for Cerberus

IDV60901

Issued at 8:21 pm EST Saturday 25 June 2022 (issued every 10 minutes, with the page automatically refreshed every 10 minutes)

About weather observations | Map of Melbourne area stations | Latest observations for Melbourne area | Other Formats
Station Details ID: 086361 Name: CERBERUS Lat: -38.36 Lon: 145.18 Height: 12.69 m
Data from the previous 72 hours. | See also: Recent months at Cerberus
Date/Time
EST
Temp
°C
App
Temp
°C
Dew
Point
°C
Rel
Hum
%
Delta-T
°C
Wind Press
QNH
hPa
Press
MSL
hPa
Rain since
9am
mm
Dir  Spd
km/h
Gust
km/h
Spd
kts
Gust
kts
25/08:00pm 13.4 9.1 7.2 66 3.0 NNW 19 35 10 19 1019.0 1019.0 0.0
25/07:30pm 13.5 9.2 7.1 65 3.1 NNW 19 32 10 17 1018.8 1018.8 0.0
25/07:00pm 13.7 9.8 7.0 64 3.2 NNW 17 30 9 16 1018.4 1018.4 0.0
25/06:30pm 13.3 10.2 7.3 67 2.9 NNW 13 22 7 12 1018.2 1018.2 0.0
25/06:00pm 13.5 10.4 7.3 66 3.0 NNW 13 24 7 13 1017.8 1017.8 0.0
25/05:30pm 13.9 10.8 7.2 64 3.3 NNW 13 28 7 15 1018.0 1018.0 0.0
25/05:00pm 14.0 9.6 6.6 61 3.6 NW 19 28 10 15 1017.7 1017.7 0.0
25/04:30pm 14.0 10.4 6.8 62 3.5 NW 15 26 8 14 1017.7 1017.7 0.0
25/04:00pm 14.3 10.8 7.1 62 3.5 NW 15 28 8 15 1017.9 1017.9 0.0
25/03:30pm 14.6 11.2 7.6 63 3.5 NNW 15 28 8 15 1017.8 1017.8 0.0
25/03:00pm 15.2 11.3 7.3 59 3.9 NNW 17 33 9 18 1017.7 1017.7 0.0
25/02:30pm 15.0 11.1 7.3 60 3.8 NW 17 28 9 15 1017.7 1017.7 0.0
25/02:00pm 14.5 10.0 6.8 60 3.7 NW 20 33 11 18 1017.9 1017.9 0.0
25/01:30pm 15.1 9.8 6.7 57 4.1 NW 24 46 13 25 1017.9 1017.9 0.0
25/01:00pm 14.8 9.1 6.6 58 4.0 NW 26 41 14 22 1018.0 1018.0 0.0
25/12:30pm 14.3 8.6 6.9 61 3.6 NNW 26 44 14 24 1017.9 1017.9 0.0
25/12:00pm 14.3 9.5 7.4 63 3.4 NNW 22 39 12 21 1018.2 1018.2 0.0
25/11:30am 14.0 8.8 7.3 64 3.3 NW 24 37 13 20 1018.4 1018.4 0.0
25/11:00am 13.6 8.4 7.4 66 3.0 NNW 24 35 13 19 1018.8 1018.8 0.0
25/10:30am 13.6 9.4 7.4 66 3.0 NW 19 33 10 18 1019.0 1019.0 0.0
25/10:00am 13.0 9.0 6.8 66 3.0 NW 17 30 9 16 1019.0 1019.0 0.0
25/09:30am 12.5 9.0 7.0 69 2.6 NNW 15 28 8 15 1018.4 1018.4 0.0
25/09:00am 11.9 9.0 6.6 70 2.5 NNW 11 20 6 11 1018.4 1018.4 0.2
25/08:30am 11.4 7.7 6.5 72 2.3 NNW 15 28 8 15 1018.0 1018.0 0.2
25/08:00am 10.5 6.5 6.5 76 1.9 NW 17 28 9 15 1017.8 1017.8 0.2
25/07:30am 10.3 6.9 6.1 75 1.9 NW 13 24 7 13 1017.8 1017.8 0.2
25/07:00am 11.1 7.4 6.5 73 2.2 NW 15 28 8 15 1017.6 1017.6 0.2
25/06:30am 10.7 7.0 6.1 73 2.1 NNW 15 28 8 15 1017.1 1017.1 0.2
25/06:00am 10.8 8.3 6.4 74 2.1 NNW 9 17 5 9 1016.9 1016.9 0.2
25/05:30am 10.3 7.8 6.5 77 1.8 NW 9 17 5 9 1016.7 1016.7 0.2
25/05:00am 9.8 7.3 6.5 80 1.5 NW 9 17 5 9 1016.3 1016.3 0.2
25/04:30am 10.0 7.2 7.1 82 1.4 NNW 11 15 6 8 1016.3 1016.3 0.2
25/04:00am 10.1 7.3 6.8 80 1.5 NNW 11 26 6 14 1016.3 1016.3 0.2
25/03:30am 9.7 7.7 7.0 83 1.3 NNW 7 9 4 5 1016.2 1016.2 0.2
25/03:00am 10.4 8.6 7.8 84 1.3 N 7 13 4 7 1016.3 1016.3 0.2
25/02:30am 10.1 8.4 7.5 84 1.2 NNW 6 9 3 5 1016.5 1016.5 0.2
25/02:00am 10.1 7.7 7.2 82 1.4 NW 9 15 5 8 1016.5 1016.5 0.2
25/01:30am 10.6 8.4 7.7 82 1.4 NW 9 13 5 7 1016.3 1016.3 0.2
25/01:00am 10.7 8.5 7.9 83 1.4 NW 9 15 5 8 1016.4 1016.4 0.2
25/12:30am 9.6 7.8 7.2 85 1.1 NW 6 7 3 4 1016.4 1016.4 0.2
25/12:00am 10.0 7.3 7.3 83 1.3 NW 11 17 6 9 1016.6 1016.6 0.2
 
Date/Time
EST
Temp
°C
App
Temp
°C
Dew
Point
°C
Rel
Hum
%
Delta-T
°C
Wind Press
QNH
hPa
Press
MSL
hPa
Rain since
9am
mm
Dir  Spd
km/h
Gust
km/h
Spd
kts
Gust
kts
24/11:30pm 10.0 7.8 7.8 86 1.1 NW 9 15 5 8 1016.7 1016.7 0.2
24/11:00pm 8.9 7.0 6.9 87 0.9 NW 6 9 3 5 1016.7 1016.7 0.2
24/10:30pm 9.2 7.3 6.8 85 1.1 NW 6 6 3 3 1016.7 1016.7 0.2
24/10:00pm 10.3 8.6 7.7 84 1.2 NW 6 9 3 5 1016.8 1016.8 0.2
24/09:30pm 10.5 8.7 8.1 85 1.2 NW 7 13 4 7 1016.8 1016.8 0.2
24/09:00pm 10.2 8.4 7.1 81 1.5 NW 6 9 3 5 1016.7 1016.7 0.2
24/08:30pm 11.6 9.8 8.1 79 1.7 WNW 7 9 4 5 1016.7 1016.7 0.2
24/08:00pm 12.0 9.5 8.1 77 1.9 WNW 11 17 6 9 1016.7 1016.7 0.2
24/07:30pm 11.7 8.7 7.8 77 1.9 WNW 13 20 7 11 1016.6 1016.6 0.2
24/07:00pm 11.1 9.2 7.6 79 1.7 NW 7 9 4 5 1016.2 1016.2 0.2
24/06:30pm 11.8 10.0 8.1 78 1.8 WNW 7 13 4 7 1015.8 1015.8 0.2
24/06:00pm 11.8 9.6 7.9 77 1.9 WNW 9 15 5 8 1015.6 1015.6 0.2
24/05:30pm 11.9 9.7 7.8 76 2.0 WNW 9 19 5 10 1015.3 1015.3 0.2
24/05:00pm 12.4 10.2 7.7 73 2.3 NW 9 17 5 9 1015.0 1015.0 0.2
24/04:30pm 12.8 10.1 7.5 70 2.6 WNW 11 19 6 10 1014.7 1014.7 0.2
24/04:00pm 13.7 10.2 7.2 65 3.2 WNW 15 22 8 12 1014.7 1014.7 0.2
24/03:30pm 14.0 10.7 8.0 67 3.0 NW 15 22 8 12 1014.6 1014.6 0.2
24/03:00pm 14.7 11.4 8.0 64 3.3 WNW 15 24 8 13 1014.5 1014.5 0.2
24/02:30pm 15.0 11.7 8.0 63 3.5 WNW 15 22 8 12 1014.1 1014.1 0.2
24/02:00pm 14.5 10.8 8.0 65 3.2 WNW 17 33 9 18 1014.1 1014.1 0.2
24/01:30pm 14.3 11.3 9.1 71 2.6 WNW 15 26 8 14 1014.3 1014.3 0.2
24/01:00pm 13.0 10.0 9.4 79 1.8 WNW 15 26 8 14 1014.4 1014.4 0.2
24/12:30pm 14.3 10.4 9.3 72 2.6 WNW 20 32 11 17 1014.4 1014.4 0.2
24/12:00pm 14.5 10.9 9.7 73 2.5 WNW 19 30 10 16 1014.3 1014.3 0.2
24/11:30am 14.2 10.3 9.6 74 2.4 WNW 20 30 11 16 1014.3 1014.3 0.0
24/11:00am 13.8 10.3 10.2 79 1.9 WNW 19 28 10 15 1014.4 1014.4 0.0
24/10:30am 13.3 9.9 10.5 83 1.5 WNW 19 26 10 14 1014.4 1014.4 0.0
24/10:00am 12.7 9.4 10.8 88 1.0 WNW 19 26 10 14 1014.1 1014.1 0.0
24/09:30am 12.7 9.6 10.2 85 1.3 WNW 17 28 9 15 1013.8 1013.8 0.0
24/09:00am 12.5 9.4 10.2 86 1.2 NW 17 28 9 15 1013.3 1013.4 6.6
24/08:30am 12.2 9.4 10.1 87 1.1 NW 15 24 8 13 1013.0 1013.1 6.6
24/08:00am 12.1 9.7 10.2 88 1.0 NW 13 20 7 11 1012.8 1012.9 6.6
24/07:30am 11.8 9.8 10.0 89 0.9 NW 11 17 6 9 1012.7 1012.8 6.6
24/07:00am 11.9 9.8 9.8 87 1.1 NNW 11 19 6 10 1012.3 1012.4 6.6
24/06:30am 12.1 10.0 9.7 85 1.2 NW 11 20 6 11 1011.9 1012.0 6.6
24/06:00am 11.9 9.0 9.8 87 1.1 NNW 15 26 8 14 1011.3 1011.4 6.6
24/05:30am 11.7 10.0 9.8 88 1.0 NNW 9 15 5 8 1011.0 1011.1 6.6
24/05:00am 11.9 9.5 10.0 88 1.0 NW 13 22 7 12 1011.1 1011.2 5.8
24/04:30am 12.2 9.7 9.6 84 1.3 NNW 13 26 7 14 1010.7 1010.8 3.4
24/04:00am 12.7 8.8 9.3 80 1.7 NNW 20 32 11 17 1010.5 1010.6 1.4
24/03:30am 12.9 9.1 9.2 78 1.9 NNW 19 28 10 15 1010.7 1010.8 0.4
24/03:00am 13.2 9.2 9.1 76 2.1 NNW 20 35 11 19 1010.9 1011.0 0.2
24/02:30am 14.3 9.5 8.7 69 2.8 NNW 24 41 13 22 1011.1 1011.2 0.0
24/02:00am 14.2 9.3 8.6 69 2.8 NNW 24 48 13 26 1011.1 1011.2 0.0
24/01:40am 14.5 8.8 8.2 66 3.2 NNW 28 54 15 29 1011.0 1011.1 0.0
24/01:30am 14.5 9.1 8.2 66 3.2 NNW 26 48 14 26 1011.0 1011.1 0.0
24/01:19am 14.7 9.0 8.4 66 3.2 NNW 28 48 15 26 1010.8 1010.9 0.0
24/01:00am 14.7 9.8 8.4 66 3.2 NNW 24 46 13 25 1010.9 1011.0 0.0
24/12:30am 14.7 10.2 8.4 66 3.2 NNW 22 41 12 22 1011.6 1011.7 0.0
24/12:00am 14.7 9.4 8.6 67 3.1 NNW 26 50 14 27 1011.7 1011.8 0.0
 
Date/Time
EST
Temp
°C
App
Temp
°C
Dew
Point
°C
Rel
Hum
%
Delta-T
°C
Wind Press
QNH
hPa
Press
MSL
hPa
Rain since
9am
mm
Dir  Spd
km/h
Gust
km/h
Spd
kts
Gust
kts
23/11:42pm 14.7 9.1 8.9 68 2.9 NNW 28 48 15 26 1011.9 1012.0 0.0
23/11:30pm 14.6 9.4 9.0 69 2.9 NNW 26 41 14 22 1012.0 1012.1 0.0
23/11:00pm 14.5 9.8 9.1 70 2.8 NNW 24 43 13 23 1012.2 1012.3 0.0
23/10:30pm 14.5 10.5 9.1 70 2.8 NNW 20 37 11 20 1012.3 1012.4 0.0
23/10:00pm 14.6 10.3 9.2 70 2.8 NNW 22 43 12 23 1012.6 1012.7 0.0
23/09:30pm 14.5 10.6 9.3 71 2.7 NNW 20 35 11 19 1013.4 1013.5 0.0
23/09:00pm 14.5 11.2 9.5 72 2.6 N 17 33 9 18 1013.7 1013.7 0.0
23/08:30pm 14.7 11.0 9.5 71 2.7 N 19 39 10 21 1014.2 1014.2 0.0
23/08:00pm 14.5 11.1 9.3 71 2.7 N 17 32 9 17 1014.6 1014.6 0.0
23/07:30pm 14.4 11.0 9.2 71 2.7 N 17 33 9 18 1014.7 1014.7 0.0
23/07:00pm 14.2 10.8 9.0 71 2.6 N 17 26 9 14 1014.8 1014.8 0.0
23/06:30pm 14.2 11.1 9.0 71 2.6 N 15 30 8 16 1015.1 1015.1 0.0
23/06:00pm 14.2 10.8 9.0 71 2.6 NNW 17 28 9 15 1015.2 1015.2 0.0
23/05:30pm 14.3 11.2 8.9 70 2.7 N 15 30 8 16 1015.2 1015.2 0.0
23/05:00pm 14.5 11.4 8.9 69 2.8 NNW 15 28 8 15 1015.4 1015.4 0.0
23/04:30pm 14.7 11.2 8.9 68 2.9 N 17 37 9 20 1015.3 1015.3 0.0
23/04:00pm 14.9 11.8 8.8 67 3.1 N 15 26 8 14 1015.5 1015.5 0.0
23/03:30pm 15.1 11.9 8.3 64 3.4 NNW 15 28 8 15 1015.7 1015.7 0.0
23/03:00pm 15.5 11.5 8.3 62 3.6 NNW 19 37 10 20 1015.8 1015.8 0.0
23/02:30pm 15.4 12.0 9.1 66 3.2 NNW 17 28 9 15 1015.8 1015.8 0.0
23/02:00pm 15.6 11.8 9.1 65 3.3 NNW 19 32 10 17 1016.2 1016.2 0.0
23/01:30pm 15.6 12.7 9.5 67 3.2 NNW 15 32 8 17 1016.6 1016.6 0.0
23/01:00pm 15.4 11.6 9.7 69 3.0 NNW 20 32 11 17 1017.5 1017.5 0.0
23/12:30pm 15.7 11.9 9.8 68 3.1 NNW 20 35 11 19 1018.1 1018.1 0.0
23/12:00pm 15.3 12.5 9.9 70 2.8 NNW 15 28 8 15 1018.9 1018.9 0.0
23/11:30am 14.8 12.3 9.8 72 2.6 NNW 13 20 7 11 1019.7 1019.7 0.0
23/11:00am 14.4 11.9 9.6 73 2.5 NNW 13 24 7 13 1020.3 1020.3 0.0
23/10:30am 14.4 11.9 9.6 73 2.5 NNW 13 22 7 12 1020.7 1020.7 0.0
23/10:00am 14.0 11.0 9.4 74 2.3 NNW 15 22 8 12 1020.6 1020.6 0.0
23/09:30am 14.1 10.8 9.5 74 2.4 NNW 17 28 9 15 1020.9 1020.9 0.0
23/09:00am 13.1 10.2 9.5 79 1.8 NNW 15 24 8 13 1020.7 1020.7 0.6
23/08:30am 12.6 10.0 9.2 80 1.7 NNW 13 22 7 12 1020.6 1020.6 0.6
23/08:00am 12.6 10.0 9.2 80 1.7 NNW 13 24 7 13 1020.5 1020.5 0.6
23/07:30am 12.3 10.5 9.3 82 1.5 N 9 19 5 10 1020.6 1020.6 0.6
23/07:00am 12.2 10.1 9.6 84 1.3 NNW 11 20 6 11 1020.6 1020.6 0.6
23/06:30am 11.7 10.2 9.3 85 1.2 NNW 7 15 4 8 1020.5 1020.5 0.6
23/06:00am 11.6 9.3 9.0 84 1.3 NNW 11 15 6 8 1020.2 1020.2 0.6
23/05:30am 11.8 9.6 9.2 84 1.3 NNW 11 19 6 10 1020.1 1020.1 0.6
23/05:00am 11.9 10.1 9.5 85 1.2 NNW 9 17 5 9 1020.2 1020.2 0.6
23/04:30am 12.2 10.1 9.6 84 1.3 NNW 11 20 6 11 1020.2 1020.2 0.6
23/04:00am 12.2 9.0 9.8 85 1.2 NNW 17 28 9 15 1020.7 1020.7 0.6
23/03:30am 12.0 10.3 9.7 86 1.2 NNW 9 22 5 12 1021.0 1021.0 0.6
23/03:00am 11.9 10.8 9.8 87 1.1 NNW 6 15 3 8 1021.4 1021.4 0.6
23/02:30am 11.7 9.6 9.6 87 1.1 NNW 11 17 6 9 1021.6 1021.6 0.6
23/02:00am 11.8 9.7 9.9 88 1.0 NNW 11 19 6 10 1022.0 1022.0 0.6
23/01:30am 11.5 9.8 9.9 90 0.8 NNW 9 17 5 9 1021.9 1021.9 0.6
23/01:00am 11.4 9.4 10.0 91 0.7 N 11 19 6 10 1022.3 1022.3 0.6
23/12:30am 11.4 9.7 10.0 91 0.7 N 9 17 5 9 1022.4 1022.4 0.6
23/12:00am 11.6 9.2 9.9 89 0.9 NNW 13 20 7 11 1022.7 1022.7 0.0
 
Date/Time
EST
Temp
°C
App
Temp
°C
Dew
Point
°C
Rel
Hum
%
Delta-T
°C
Wind Press
QNH
hPa
Press
MSL
hPa
Rain since
9am
mm
Dir  Spd
km/h
Gust
km/h
Spd
kts
Gust
kts
22/11:30pm 12.0 8.9 9.0 82 1.5 NNW 15 24 8 13 1022.6 1022.6 0.0
22/11:00pm 12.2 9.1 8.9 80 1.6 NNW 15 24 8 13 1022.8 1022.8 0.0
22/10:30pm 12.1 9.7 8.8 80 1.6 NNW 11 17 6 9 1022.7 1022.7 0.0
22/10:00pm 11.7 9.7 8.7 82 1.5 N 9 15 5 8 1022.9 1022.9 0.0
22/09:30pm 11.9 10.3 8.7 81 1.6 N 7 15 4 8 1023.1 1023.1 0.0
22/09:00pm 12.0 10.4 8.7 80 1.6 N 7 13 4 7 1023.2 1023.2 0.0
22/08:30pm 11.9 10.4 8.6 80 1.6 N 6 9 3 5 1023.4 1023.4 0.0

Latest Capital City Observations: Canberra | Sydney | Melbourne | Brisbane | Adelaide | Perth | Hobart | Darwin

Other formats

Comma delimited format used in spreadsheet applications
http://www.bom.gov.au/fwo/IDV60901/IDV60901.94898.axf

JavaScript Object Notation format (JSON) in row-major order
http://www.bom.gov.au/fwo/IDV60901/IDV60901.94898.json

Data quality

Most of these data are generated automatically and are frequently updated. Quality checks on data are not normally performed. It is possible for incorrect values to appear. Refer to information at About Latest Weather Observations and please check the disclaimer before using these data.